Terminal Aerodrome Forecast
Issued by NWS Tulsa, OK

Home | Current Version | Previous Version | Text Only | Print | Product List | Glossary On
Versions: 1 2 3 4 5 6 7 8 9 10 11 12 13 14 15 16 17
000
FTUS44 KTSA 212340
TAFTUL
TAF
KTUL 212340Z 2200/2224 20011G17KT P6SM SCT050 SCT120
     FM220400 22011G20KT P6SM SCT100
     FM221300 25020G27KT P6SM SCT028 BKN035
     FM221700 28021G29KT P6SM BKN040=

USA.gov is the U.S. government's official web portal to all federal, state and local government web resources and services.